createdAt,value
2017-11-03T00:00:06.960Z,31.25
2017-11-03T00:01:12.725Z,29.73
2017-11-03T00:02:18.492Z,31.20
2017-11-03T00:03:24.521Z,30.60
2017-11-03T00:04:30.285Z,31.48
2017-11-03T00:05:36.070Z,29.70
2017-11-03T00:06:42.597Z,31.50
2017-11-03T00:07:48.361Z,29.67
2017-11-03T00:08:54.887Z,30.88
2017-11-03T00:10:00.653Z,31.65
2017-11-03T00:11:06.440Z,28.55
2017-11-03T00:12:12.212Z,32.10
2017-11-03T00:13:17.969Z,29.40
2017-11-03T00:14:23.732Z,29.77
2017-11-03T00:15:30.264Z,31.17
2017-11-03T00:16:36.057Z,31.05
2017-11-03T00:17:41.620Z,31.17
2017-11-03T00:18:47.390Z,30.73
2017-11-03T00:19:53.148Z,30.73
2017-11-03T00:20:59.674Z,31.20
2017-11-03T00:22:05.464Z,30.85
2017-11-03T00:23:11.989Z,31.85
2017-11-03T00:24:17.750Z,30.70
2017-11-03T00:25:24.273Z,31.65
2017-11-03T00:26:30.052Z,31.92
2017-11-03T00:27:35.633Z,33.40
2017-11-03T00:28:41.396Z,30.95
2017-11-03T00:29:47.153Z,30.73
2017-11-03T00:30:52.923Z,30.70
2017-11-03T00:31:59.459Z,33.95
2017-11-03T00:33:05.249Z,32.42
2017-11-03T00:34:11.013Z,30.48
2017-11-03T00:35:16.774Z,32.75
2017-11-03T00:36:22.545Z,31.92
2017-11-03T00:37:28.392Z,31.37
2017-11-03T00:38:34.942Z,30.33
2017-11-03T00:39:41.465Z,31.62
2017-11-03T00:40:47.240Z,29.83
2017-11-03T00:41:53.009Z,29.50
2017-11-03T00:42:58.764Z,29.73
2017-11-03T00:44:04.606Z,29.40
2017-11-03T00:45:10.365Z,31.70
2017-11-03T00:46:16.133Z,31.25
2017-11-03T00:47:21.904Z,30.58
2017-11-03T00:48:27.665Z,30.27
2017-11-03T00:49:34.232Z,30.55
2017-11-03T00:50:39.775Z,29.65
2017-11-03T00:51:45.533Z,30.02
2017-11-03T00:52:51.307Z,29.95
2017-11-03T00:53:57.075Z,29.83
2017-11-03T00:55:02.880Z,29.60
2017-11-03T00:56:08.653Z,28.45
2017-11-03T00:57:14.400Z,29.40
2017-11-03T00:58:20.164Z,28.15
2017-11-03T00:59:26.700Z,28.33
2017-11-03T01:00:33.265Z,30.17
2017-11-03T01:01:39.016Z,28.95
2017-11-03T01:02:45.553Z,29.85
2017-11-03T01:03:51.308Z,29.65
2017-11-03T01:04:57.069Z,28.10
2017-11-03T01:06:03.613Z,28.87
2017-11-03T01:07:10.141Z,29.65
2017-11-03T01:08:15.906Z,28.52
2017-11-03T01:09:21.316Z,28.98
2017-11-03T01:10:27.077Z,30.85
2017-11-03T01:11:32.862Z,27.70
2017-11-03T01:12:38.623Z,28.67
2017-11-03T01:13:44.378Z,29.83
2017-11-03T01:14:50.146Z,29.75
2017-11-03T01:15:55.933Z,28.40
2017-11-03T01:17:01.729Z,29.92
2017-11-03T01:18:08.266Z,28.65
2017-11-03T01:19:14.035Z,27.85
2017-11-03T01:20:19.813Z,29.77
2017-11-03T01:21:25.577Z,29.45
2017-11-03T01:22:31.388Z,30.48
2017-11-03T01:23:37.913Z,28.25
2017-11-03T01:24:43.677Z,28.95
2017-11-03T01:25:50.218Z,28.30
2017-11-03T01:26:57.482Z,30.42
2017-11-03T01:28:03.285Z,29.50
2017-11-03T01:29:09.045Z,31.98
2017-11-03T01:30:14.800Z,29.65
2017-11-03T01:31:20.012Z,30.42
2017-11-03T01:32:25.524Z,28.42
2017-11-03T01:33:31.323Z,30.17
2017-11-03T01:34:37.088Z,29.00
2017-11-03T01:35:43.607Z,29.00
2017-11-03T01:36:49.364Z,28.23
2017-11-03T01:37:55.130Z,28.73
2017-11-03T01:39:01.685Z,30.83
2017-11-03T01:40:07.460Z,27.13
2017-11-03T01:41:13.217Z,29.83
2017-11-03T01:42:18.986Z,29.70
2017-11-03T01:43:24.670Z,29.52
2017-11-03T01:44:30.528Z,26.90
2017-11-03T01:45:36.293Z,28.98
2017-11-03T01:46:42.049Z,29.92
2017-11-03T01:47:47.459Z,30.67
2017-11-03T01:48:53.216Z,31.27
2017-11-03T01:49:59.003Z,29.67
2017-11-03T01:51:05.537Z,30.10
2017-11-03T01:52:11.288Z,28.45
2017-11-03T01:53:17.068Z,29.65
2017-11-03T01:54:22.812Z,28.00
2017-11-03T01:55:28.598Z,28.62
2017-11-03T01:56:34.017Z,29.37
2017-11-03T01:57:39.781Z,29.50
2017-11-03T01:58:45.548Z,30.33
2017-11-03T01:59:52.084Z,31.80
2017-11-03T02:00:57.181Z,29.80
2017-11-03T02:02:02.950Z,29.70
2017-11-03T02:04:14.845Z,29.02
2017-11-03T02:05:22.112Z,28.80
2017-11-03T02:06:27.898Z,28.92
2017-11-03T02:07:33.660Z,29.17
2017-11-03T02:08:39.415Z,30.75
2017-11-03T02:09:45.186Z,29.12
2017-11-03T02:10:51.712Z,27.37
2017-11-03T02:11:57.489Z,29.02
2017-11-03T02:13:03.249Z,30.30
2017-11-03T02:14:09.776Z,30.90
2017-11-03T02:15:15.537Z,28.98
2017-11-03T02:16:21.291Z,29.80
2017-11-03T02:17:27.845Z,29.63
2017-11-03T02:18:33.397Z,29.10
2017-11-03T02:19:39.160Z,29.95
2017-11-03T02:20:43.984Z,30.88
2017-11-03T02:21:49.122Z,29.08
2017-11-03T02:22:54.589Z,28.85
2017-11-03T02:24:00.041Z,30.10
2017-11-03T02:25:06.569Z,29.40
2017-11-03T02:26:12.352Z,29.15
2017-11-03T02:27:18.892Z,28.87
2017-11-03T02:28:24.681Z,28.20
2017-11-03T02:29:30.448Z,27.75
2017-11-03T02:30:35.893Z,28.30
2017-11-03T02:31:41.649Z,29.17
2017-11-03T02:32:47.408Z,27.52
2017-11-03T02:33:53.968Z,29.02
2017-11-03T02:35:00.608Z,28.75
2017-11-03T02:36:06.637Z,28.60
2017-11-03T02:37:12.405Z,26.67
2017-11-03T02:38:18.164Z,28.12
2017-11-03T02:39:24.042Z,27.65
2017-11-03T02:40:29.814Z,27.83
2017-11-03T02:41:35.568Z,28.62
2017-11-03T02:42:41.323Z,27.20
2017-11-03T02:43:47.077Z,28.12
2017-11-03T02:44:53.641Z,29.48
2017-11-03T02:45:59.502Z,28.05
2017-11-03T02:47:05.309Z,28.17
2017-11-03T02:48:11.064Z,28.40
2017-11-03T02:49:17.594Z,27.73
2017-11-03T02:50:23.403Z,27.80
2017-11-03T02:51:29.159Z,28.52
2017-11-03T02:52:34.933Z,28.85
2017-11-03T02:53:40.688Z,28.77
2017-11-03T02:54:47.216Z,27.90
2017-11-03T02:55:53.009Z,27.85
2017-11-03T02:56:58.780Z,28.87
2017-11-03T02:58:04.542Z,28.48
2017-11-03T02:59:10.311Z,27.80
2017-11-03T03:00:16.071Z,28.33
2017-11-03T03:01:21.870Z,27.48
2017-11-03T03:02:27.624Z,29.42
2017-11-03T03:03:33.380Z,28.90
2017-11-03T03:04:39.715Z,29.35
2017-11-03T03:05:45.473Z,28.33
2017-11-03T03:06:52.040Z,27.80
2017-11-03T03:07:58.561Z,28.45
2017-11-03T03:09:03.533Z,29.67
2017-11-03T03:10:10.063Z,28.67
2017-11-03T03:11:15.821Z,28.98
2017-11-03T03:12:22.382Z,26.92
2017-11-03T03:13:28.907Z,28.50
2017-11-03T03:14:34.664Z,28.92
2017-11-03T03:15:40.155Z,29.17
2017-11-03T03:16:45.212Z,30.40
2017-11-03T03:17:52.506Z,30.95
2017-11-03T03:18:58.265Z,28.70
2017-11-03T03:20:04.440Z,28.60
2017-11-03T03:21:09.860Z,28.50
2017-11-03T03:22:16.376Z,28.77
2017-11-03T03:23:22.171Z,29.80
2017-11-03T03:24:28.349Z,28.23
2017-11-03T03:25:34.096Z,29.05
2017-11-03T03:26:39.469Z,29.80
2017-11-03T03:27:46.017Z,28.73
2017-11-03T03:28:51.803Z,28.83
2017-11-03T03:29:57.566Z,30.30
2017-11-03T03:31:03.325Z,29.00
2017-11-03T03:32:09.076Z,28.55
2017-11-03T03:33:14.834Z,30.42
2017-11-03T03:34:21.049Z,29.12
2017-11-03T03:35:26.820Z,29.75
2017-11-03T03:36:32.575Z,27.08
2017-11-03T03:37:39.106Z,30.23
2017-11-03T03:38:44.883Z,28.83
2017-11-03T03:39:51.432Z,29.27
2017-11-03T03:40:57.969Z,29.45
2017-11-03T03:42:03.741Z,30.05
2017-11-03T03:43:10.284Z,29.95
2017-11-03T03:44:16.044Z,29.50
2017-11-03T03:45:21.912Z,28.20
2017-11-03T03:46:26.993Z,30.90
2017-11-03T03:47:32.068Z,29.73
2017-11-03T03:48:37.127Z,29.55
2017-11-03T03:49:42.337Z,29.30
2017-11-03T03:50:48.122Z,31.40
2017-11-03T03:51:53.896Z,29.85
2017-11-03T03:52:59.661Z,30.77
2017-11-03T03:54:05.074Z,30.10
2017-11-03T03:55:10.829Z,29.63
2017-11-03T03:56:15.919Z,29.17
2017-11-03T03:57:21.760Z,29.15
2017-11-03T03:58:28.285Z,28.48
2017-11-03T03:59:34.058Z,29.87
2017-11-03T04:00:40.594Z,29.20
2017-11-03T04:01:46.386Z,30.83
2017-11-03T04:02:52.144Z,28.52
2017-11-03T04:03:57.565Z,29.00
2017-11-03T04:05:03.321Z,29.37
2017-11-03T04:06:09.097Z,29.10
2017-11-03T04:07:14.897Z,29.10
2017-11-03T04:08:20.657Z,26.60
2017-11-03T04:09:25.736Z,30.60
2017-11-03T04:10:31.917Z,30.55
2017-11-03T04:11:37.472Z,29.08
2017-11-03T04:12:43.060Z,30.12
2017-11-03T04:13:49.593Z,30.73
2017-11-03T04:14:56.862Z,31.23
2017-11-03T04:16:02.885Z,31.30
2017-11-03T04:17:08.649Z,29.20
2017-11-03T04:18:14.257Z,29.87
2017-11-03T04:19:20.056Z,26.98
2017-11-03T04:20:25.825Z,29.27
2017-11-03T04:21:31.588Z,28.50
2017-11-03T04:22:37.344Z,28.45
2017-11-03T04:23:43.136Z,29.00
2017-11-03T04:24:49.665Z,30.48
2017-11-03T04:25:55.501Z,29.58
2017-11-03T04:27:01.259Z,29.20
2017-11-03T04:28:07.440Z,30.17
2017-11-03T04:29:13.236Z,31.67
2017-11-03T04:30:18.993Z,28.60
2017-11-03T04:31:24.778Z,28.48
2017-11-03T04:32:30.527Z,28.50
2017-11-03T04:33:35.957Z,28.83
2017-11-03T04:34:41.740Z,29.20
2017-11-03T04:35:47.501Z,28.85
2017-11-03T04:36:53.268Z,29.35
2017-11-03T04:37:59.024Z,29.98
2017-11-03T04:39:04.181Z,28.33
2017-11-03T04:40:10.002Z,29.77
2017-11-03T04:41:15.768Z,27.80
2017-11-03T04:42:22.408Z,28.45
2017-11-03T04:43:28.177Z,28.25
2017-11-03T04:44:33.952Z,30.02
2017-11-03T04:45:39.824Z,29.42
2017-11-03T04:46:44.912Z,29.77
2017-11-03T04:47:51.100Z,29.60
2017-11-03T04:48:56.868Z,29.85
2017-11-03T04:50:02.625Z,27.75
2017-11-03T04:51:08.407Z,28.35
2017-11-03T04:52:14.984Z,28.48
2017-11-03T04:53:20.392Z,29.30
2017-11-03T04:54:25.990Z,29.20
2017-11-03T04:55:31.059Z,29.80
2017-11-03T04:56:37.405Z,30.02
2017-11-03T04:57:43.933Z,31.42
2017-11-03T04:58:49.692Z,29.20
2017-11-03T04:59:56.235Z,29.83
2017-11-03T05:01:01.993Z,29.40
2017-11-03T05:02:07.776Z,31.17
2017-11-03T05:03:13.545Z,30.52
2017-11-03T05:04:19.304Z,30.20
2017-11-03T05:05:25.069Z,30.42
2017-11-03T05:06:30.831Z,29.40
2017-11-03T05:07:36.629Z,31.05
2017-11-03T05:08:42.387Z,29.08
2017-11-03T05:09:48.152Z,30.37
2017-11-03T05:10:54.689Z,30.27
2017-11-03T05:12:00.448Z,31.80
2017-11-03T05:13:06.242Z,28.35
2017-11-03T05:14:12.016Z,30.40
2017-11-03T05:15:17.783Z,30.40
2017-11-03T05:16:25.048Z,30.42
2017-11-03T05:17:30.814Z,30.25
2017-11-03T05:18:37.441Z,28.45
2017-11-03T05:19:43.202Z,29.33
2017-11-03T05:20:48.961Z,30.23
2017-11-03T05:21:55.481Z,30.17
2017-11-03T05:23:01.252Z,31.08
2017-11-03T05:24:06.585Z,30.73
2017-11-03T05:25:12.344Z,29.90
2017-11-03T05:26:18.864Z,29.55
2017-11-03T05:27:24.624Z,29.73
2017-11-03T05:28:30.674Z,30.65
2017-11-03T05:29:36.465Z,31.40
2017-11-03T05:30:42.228Z,30.88
2017-11-03T05:31:47.998Z,29.80
2017-11-03T05:32:53.765Z,30.70
2017-11-03T05:33:59.537Z,30.67
2017-11-03T05:35:05.334Z,30.73
2017-11-03T05:36:11.192Z,30.15
2017-11-03T05:37:16.674Z,30.40
2017-11-03T05:38:22.106Z,31.05
2017-11-03T05:39:26.940Z,31.60
2017-11-03T05:40:32.633Z,29.63
2017-11-03T05:41:38.393Z,28.70
2017-11-03T05:42:44.164Z,28.40
2017-11-03T05:43:49.929Z,28.45
2017-11-03T05:44:56.126Z,29.80
2017-11-03T05:46:01.922Z,31.35
2017-11-03T05:47:08.451Z,29.95
2017-11-03T05:48:14.225Z,30.27
2017-11-03T05:49:20.771Z,29.33
2017-11-03T05:50:28.040Z,30.77
2017-11-03T05:51:33.641Z,32.08
2017-11-03T05:52:39.417Z,29.65
2017-11-03T05:53:44.832Z,31.52
2017-11-03T05:54:50.249Z,31.60
2017-11-03T05:55:56.008Z,32.63
2017-11-03T05:57:01.800Z,30.62
2017-11-03T05:58:08.325Z,31.75
2017-11-03T05:59:14.085Z,32.38
2017-11-03T06:00:20.616Z,32.28
2017-11-03T06:01:26.456Z,32.22
2017-11-03T06:02:32.228Z,32.78
2017-11-03T06:03:37.988Z,31.83
2017-11-03T06:04:44.516Z,32.58
2017-11-03T06:05:50.279Z,31.35
2017-11-03T06:06:56.040Z,32.10
2017-11-03T06:08:02.593Z,31.90
2017-11-03T06:09:08.359Z,32.80
2017-11-03T06:10:14.873Z,33.33
2017-11-03T06:11:20.455Z,30.95
2017-11-03T06:12:27.305Z,33.67
2017-11-03T06:13:33.102Z,34.05
2017-11-03T06:14:38.856Z,33.28
2017-11-03T06:15:44.632Z,33.80
2017-11-03T06:16:51.900Z,31.83
2017-11-03T06:17:57.477Z,33.65
2017-11-03T06:19:03.264Z,34.05
2017-11-03T06:20:09.065Z,31.92
2017-11-03T06:21:14.642Z,32.80
2017-11-03T06:22:20.391Z,32.80
2017-11-03T06:23:25.960Z,34.50
2017-11-03T06:24:32.514Z,33.58
2017-11-03T06:25:38.532Z,33.65
2017-11-03T06:26:44.346Z,34.08
2017-11-03T06:27:50.088Z,33.58
2017-11-03T06:28:55.660Z,32.58
2017-11-03T06:30:01.466Z,33.20
2017-11-03T06:31:07.241Z,34.40
2017-11-03T06:32:13.001Z,33.03
2017-11-03T06:33:18.757Z,34.38
2017-11-03T06:34:24.501Z,33.58
2017-11-03T06:35:31.048Z,32.30
2017-11-03T06:36:36.796Z,32.33
2017-11-03T06:37:42.559Z,34.97
2017-11-03T06:38:49.070Z,34.40
2017-11-03T06:39:54.835Z,32.75
2017-11-03T06:41:02.147Z,35.22
2017-11-03T06:42:07.560Z,34.03
2017-11-03T06:43:14.077Z,35.85
2017-11-03T06:44:19.850Z,34.63
2017-11-03T06:45:26.384Z,34.40
2017-11-03T06:46:31.950Z,34.80
2017-11-03T06:47:38.478Z,35.58
2017-11-03T06:48:44.240Z,33.00
2017-11-03T06:49:50.004Z,34.95
2017-11-03T06:50:56.532Z,33.72
2017-11-03T06:52:02.317Z,32.95
2017-11-03T06:53:08.131Z,33.60
2017-11-03T06:54:13.885Z,33.00
2017-11-03T06:55:20.060Z,34.35
2017-11-03T06:56:25.823Z,32.78
2017-11-03T06:57:31.604Z,32.58
2017-11-03T06:58:37.364Z,33.80
2017-11-03T06:59:43.909Z,32.08
2017-11-03T07:00:49.666Z,31.67
2017-11-03T07:01:56.183Z,34.90
2017-11-03T07:03:01.974Z,31.58
2017-11-03T07:04:07.744Z,31.83
2017-11-03T07:05:13.492Z,32.30
2017-11-03T07:06:19.258Z,31.77
2017-11-03T07:07:25.023Z,31.85
2017-11-03T07:08:30.818Z,32.88
2017-11-03T07:09:36.583Z,34.45
2017-11-03T07:10:42.353Z,29.90
2017-11-03T07:11:48.883Z,32.67
2017-11-03T07:12:54.643Z,31.92
2017-11-03T07:14:00.524Z,33.13
2017-11-03T07:15:05.940Z,31.87
2017-11-03T07:16:12.484Z,33.65
2017-11-03T07:17:19.010Z,31.02
2017-11-03T07:18:24.778Z,31.40
2017-11-03T07:19:30.624Z,33.55
2017-11-03T07:20:36.060Z,32.60
2017-11-03T07:21:41.824Z,33.50
2017-11-03T07:22:47.606Z,32.25
2017-11-03T07:23:54.130Z,34.08
2017-11-03T07:24:59.921Z,34.05
2017-11-03T07:26:05.676Z,33.38
2017-11-03T07:27:11.451Z,33.17
2017-11-03T07:28:17.981Z,34.40
2017-11-03T07:29:23.741Z,33.90
2017-11-03T07:30:29.517Z,34.30
2017-11-03T07:31:35.275Z,34.63
2017-11-03T07:32:41.046Z,34.50
2017-11-03T07:33:46.804Z,31.77
2017-11-03T07:34:53.332Z,36.15
2017-11-03T07:35:59.120Z,33.35
2017-11-03T07:37:04.891Z,33.90
2017-11-03T07:38:10.652Z,34.92
2017-11-03T07:39:16.412Z,33.45
2017-11-03T07:40:22.285Z,32.88
2017-11-03T07:41:28.629Z,33.30
2017-11-03T07:42:35.156Z,34.00
2017-11-03T07:43:40.921Z,34.20
2017-11-03T07:44:47.471Z,32.92
2017-11-03T07:45:53.226Z,33.72
2017-11-03T07:46:59.027Z,34.67
2017-11-03T07:48:04.800Z,33.75
2017-11-03T07:49:10.812Z,31.75
2017-11-03T07:50:16.577Z,33.25
2017-11-03T07:51:22.344Z,32.83
2017-11-03T07:52:28.896Z,33.00
2017-11-03T07:53:34.476Z,32.35
2017-11-03T07:54:40.265Z,33.42
2017-11-03T07:55:46.031Z,32.05
2017-11-03T07:56:52.562Z,32.40
2017-11-03T07:57:58.345Z,32.15
2017-11-03T07:59:04.106Z,31.30
2017-11-03T08:00:09.673Z,31.48
2017-11-03T08:01:15.436Z,30.80
2017-11-03T08:02:21.207Z,33.13
2017-11-03T08:03:26.653Z,31.52
2017-11-03T08:04:32.414Z,31.25
2017-11-03T08:05:38.177Z,32.22
2017-11-03T08:06:43.951Z,32.30
2017-11-03T08:07:50.477Z,31.00
2017-11-03T08:08:56.269Z,29.75
2017-11-03T08:10:02.029Z,31.70
2017-11-03T08:11:07.798Z,31.08
2017-11-03T08:12:13.560Z,31.45
2017-11-03T08:13:19.321Z,30.77
2017-11-03T08:14:25.098Z,29.95
2017-11-03T08:15:30.867Z,31.37
2017-11-03T08:16:36.679Z,30.20
2017-11-03T08:17:42.433Z,30.25
2017-11-03T08:18:48.184Z,30.05
2017-11-03T08:19:53.981Z,31.42
2017-11-03T08:21:00.492Z,29.40
2017-11-03T08:22:06.257Z,28.85
2017-11-03T08:23:12.007Z,28.33
2017-11-03T08:24:17.769Z,30.30
2017-11-03T08:25:24.323Z,28.08
2017-11-03T08:26:30.904Z,28.77
2017-11-03T08:27:36.676Z,27.67
2017-11-03T08:28:42.443Z,29.75
2017-11-03T08:29:48.231Z,29.37
2017-11-03T08:30:54.013Z,28.95
2017-11-03T08:31:59.776Z,26.87
2017-11-03T08:33:05.197Z,27.05
2017-11-03T08:34:11.744Z,26.98
2017-11-03T08:35:17.501Z,28.73
2017-11-03T08:36:23.301Z,27.80
2017-11-03T08:37:29.072Z,29.30
2017-11-03T08:38:34.841Z,28.40
2017-11-03T08:39:41.372Z,25.30
2017-11-03T08:40:47.132Z,26.62
2017-11-03T08:41:53.689Z,26.55
2017-11-03T08:43:00.972Z,27.37
2017-11-03T08:44:06.736Z,27.62
2017-11-03T08:45:13.266Z,28.67
2017-11-03T08:46:19.808Z,27.30
2017-11-03T08:47:25.597Z,27.70
2017-11-03T08:48:32.137Z,28.60
2017-11-03T08:49:37.913Z,29.70
2017-11-03T08:50:43.661Z,27.85
2017-11-03T08:51:49.442Z,27.60
2017-11-03T08:52:56.263Z,26.90
2017-11-03T08:54:02.023Z,27.17
2017-11-03T08:55:07.804Z,27.60
2017-11-03T08:56:12.936Z,28.33
2017-11-03T08:57:18.689Z,28.65
2017-11-03T08:58:25.248Z,29.00
2017-11-03T08:59:30.309Z,29.63
2017-11-03T09:00:36.073Z,27.77
2017-11-03T09:01:41.837Z,28.45
2017-11-03T09:02:47.608Z,27.23
2017-11-03T09:03:54.195Z,26.77
2017-11-03T09:04:59.963Z,28.92
2017-11-03T09:06:06.749Z,29.63
2017-11-03T09:07:12.168Z,29.25
2017-11-03T09:08:17.909Z,28.87
2017-11-03T09:09:23.697Z,27.65
2017-11-03T09:10:29.460Z,26.77
2017-11-03T09:11:35.239Z,27.75
2017-11-03T09:12:42.030Z,29.25
2017-11-03T09:13:47.789Z,29.83
2017-11-03T09:14:54.357Z,30.40
2017-11-03T09:16:00.117Z,30.20
2017-11-03T09:17:05.692Z,29.98
2017-11-03T09:18:11.468Z,27.58
2017-11-03T09:19:17.999Z,30.02
2017-11-03T09:20:23.192Z,28.83
2017-11-03T09:21:28.255Z,29.87
2017-11-03T09:22:33.341Z,29.58
2017-11-03T09:23:38.408Z,27.33
2017-11-03T09:24:43.625Z,27.48
2017-11-03T09:25:48.749Z,28.25
2017-11-03T09:26:54.514Z,28.52
2017-11-03T09:28:00.277Z,30.23
2017-11-03T09:29:06.036Z,28.00
2017-11-03T09:30:11.794Z,29.02
2017-11-03T09:31:17.589Z,27.67
2017-11-03T09:32:24.142Z,27.87
2017-11-03T09:33:29.897Z,28.77
2017-11-03T09:34:36.128Z,29.15
2017-11-03T09:35:41.886Z,29.12
2017-11-03T09:36:48.442Z,29.42
2017-11-03T09:37:54.976Z,28.30
2017-11-03T09:39:02.267Z,28.30
2017-11-03T09:40:08.156Z,28.27
2017-11-03T09:41:13.915Z,30.35
2017-11-03T09:42:19.705Z,27.40
2017-11-03T09:43:26.247Z,25.70
2017-11-03T09:44:32.031Z,28.45
2017-11-03T09:45:38.208Z,27.87
2017-11-03T09:46:43.977Z,27.30
2017-11-03T09:47:49.770Z,30.55
2017-11-03T09:48:55.536Z,28.23
2017-11-03T09:50:01.311Z,27.58
2017-11-03T09:51:06.719Z,26.70
2017-11-03T09:52:13.265Z,26.83
2017-11-03T09:53:19.093Z,25.92
2017-11-03T09:54:24.863Z,26.25
2017-11-03T09:55:30.683Z,27.15
2017-11-03T09:56:36.443Z,25.85
2017-11-03T09:57:42.213Z,24.35
2017-11-03T09:58:48.019Z,22.70
2017-11-03T09:59:53.811Z,24.10
2017-11-03T10:00:59.997Z,22.73
2017-11-03T10:02:05.795Z,25.20
2017-11-03T10:03:11.547Z,24.90
2017-11-03T10:04:18.113Z,24.80
2017-11-03T10:05:24.656Z,23.67
2017-11-03T10:06:31.928Z,24.85
2017-11-03T10:07:37.703Z,23.95
2017-11-03T10:08:43.468Z,24.02
2017-11-03T10:09:50.247Z,24.02
2017-11-03T10:10:56.018Z,22.87
2017-11-03T10:12:01.800Z,22.10
2017-11-03T10:13:07.222Z,22.25
2017-11-03T10:14:13.604Z,20.30
2017-11-03T10:15:20.168Z,22.60
2017-11-03T10:16:26.688Z,22.87
2017-11-03T10:17:32.459Z,20.10
2017-11-03T10:18:38.987Z,22.60
2017-11-03T10:19:44.796Z,22.08
2017-11-03T10:20:50.419Z,21.92
2017-11-03T10:21:56.953Z,21.17
2017-11-03T10:23:02.728Z,22.50
2017-11-03T10:24:07.958Z,20.73
2017-11-03T10:25:12.883Z,19.62
2017-11-03T10:26:18.668Z,20.10
2017-11-03T10:27:25.201Z,20.60
2017-11-03T10:28:30.959Z,20.35
2017-11-03T10:29:36.713Z,20.10
2017-11-03T10:30:42.485Z,20.62
2017-11-03T10:31:49.044Z,19.95
2017-11-03T10:32:55.577Z,19.40
2017-11-03T10:34:00.989Z,20.92
2017-11-03T10:35:06.758Z,19.23
2017-11-03T10:36:12.508Z,19.98
2017-11-03T10:37:18.594Z,20.60
2017-11-03T10:38:24.362Z,19.17
2017-11-03T10:39:29.869Z,19.25
2017-11-03T10:40:35.634Z,19.05
2017-11-03T10:41:41.408Z,20.45
2017-11-03T10:42:47.197Z,17.12
2017-11-03T10:43:52.960Z,17.20
2017-11-03T10:44:58.724Z,19.33
2017-11-03T10:46:04.235Z,18.92
2017-11-03T10:47:09.993Z,20.05
2017-11-03T10:48:15.784Z,19.33
2017-11-03T10:49:21.553Z,18.92
2017-11-03T10:50:26.636Z,18.23
2017-11-03T10:51:32.473Z,18.20
2017-11-03T10:52:38.705Z,18.33
2017-11-03T10:53:43.826Z,17.77
2017-11-03T10:54:49.587Z,17.70
2017-11-03T10:55:56.878Z,17.65
2017-11-03T10:57:03.419Z,19.10
2017-11-03T10:58:09.255Z,21.30
2017-11-03T10:59:15.040Z,18.92
2017-11-03T11:00:20.877Z,20.15
2017-11-03T11:01:25.955Z,18.83
2017-11-03T11:02:31.361Z,20.52
2017-11-03T11:03:36.781Z,19.92
2017-11-03T11:04:42.569Z,20.48
2017-11-03T11:05:48.333Z,20.05
2017-11-03T11:06:54.105Z,20.70
2017-11-03T11:07:59.963Z,20.85
2017-11-03T11:09:05.062Z,20.65
2017-11-03T11:10:11.616Z,21.35
2017-11-03T11:11:18.151Z,20.30
2017-11-03T11:12:24.678Z,20.75
2017-11-03T11:13:30.097Z,20.02
2017-11-03T11:14:35.264Z,19.27
2017-11-03T11:15:41.064Z,21.50
2017-11-03T11:16:46.838Z,20.48
2017-11-03T11:17:52.602Z,20.85
2017-11-03T11:18:59.129Z,21.45
2017-11-03T11:20:04.556Z,19.15
2017-11-03T11:21:10.000Z,19.87
2017-11-03T11:22:15.766Z,19.70
2017-11-03T11:23:23.032Z,18.60
2017-11-03T11:24:28.528Z,18.02
2017-11-03T11:25:33.961Z,19.85
2017-11-03T11:26:39.754Z,19.33
2017-11-03T11:27:45.510Z,19.90
2017-11-03T11:28:51.544Z,18.70
2017-11-03T11:29:57.313Z,18.52
2017-11-03T11:31:03.848Z,19.70
2017-11-03T11:32:09.639Z,18.87
2017-11-03T11:33:15.053Z,19.25
2017-11-03T11:34:21.580Z,20.77
2017-11-03T11:35:26.657Z,19.90
2017-11-03T11:36:31.750Z,19.20
2017-11-03T11:37:37.970Z,19.67
2017-11-03T11:38:43.039Z,20.02
2017-11-03T11:39:48.909Z,19.98
2017-11-03T11:40:53.981Z,20.42
2017-11-03T11:41:59.436Z,19.23
2017-11-03T11:43:05.679Z,18.40
2017-11-03T11:44:11.692Z,20.30
2017-11-03T11:45:17.108Z,19.27
2017-11-03T11:46:22.181Z,20.17
2017-11-03T11:47:27.260Z,20.52
2017-11-03T11:48:33.048Z,18.65
2017-11-03T11:49:38.464Z,20.00
2017-11-03T11:50:43.536Z,19.10
2017-11-03T11:51:49.732Z,19.30
2017-11-03T11:52:55.152Z,18.90
2017-11-03T11:54:00.593Z,17.42
2017-11-03T11:55:06.030Z,17.77
2017-11-03T11:56:11.107Z,19.30
2017-11-03T11:57:16.960Z,17.35
2017-11-03T11:58:23.142Z,17.42
2017-11-03T11:59:28.249Z,18.87
2017-11-03T12:00:33.318Z,19.10
2017-11-03T12:01:38.742Z,19.05
2017-11-03T12:02:44.519Z,18.23
2017-11-03T12:03:49.599Z,18.20
2017-11-03T12:04:55.042Z,17.80
2017-11-03T12:06:00.143Z,19.15
2017-11-03T12:07:05.402Z,17.80
2017-11-03T12:08:10.490Z,17.20
2017-11-03T12:09:15.908Z,18.25
2017-11-03T12:10:21.773Z,17.25
2017-11-03T12:11:26.840Z,19.15
2017-11-03T12:12:32.269Z,17.83
2017-11-03T12:13:37.349Z,18.83
2017-11-03T12:14:42.434Z,19.58
2017-11-03T12:15:47.546Z,18.50
2017-11-03T12:16:52.623Z,18.73
2017-11-03T12:17:58.388Z,17.37
2017-11-03T12:19:03.470Z,17.33
2017-11-03T12:20:09.304Z,18.80
2017-11-03T12:21:14.752Z,18.37
2017-11-03T12:22:21.528Z,18.90
2017-11-03T12:23:27.708Z,18.35
2017-11-03T12:24:32.528Z,19.50
2017-11-03T12:25:37.950Z,18.27
2017-11-03T12:26:43.040Z,17.73
2017-11-03T12:27:49.236Z,17.92
2017-11-03T12:28:54.645Z,19.35
2017-11-03T12:29:59.744Z,18.25
2017-11-03T12:31:05.423Z,17.40
2017-11-03T12:32:10.503Z,17.83
2017-11-03T12:33:15.930Z,18.27
2017-11-03T12:34:21.156Z,19.48
2017-11-03T12:35:26.215Z,18.52
2017-11-03T12:36:32.056Z,20.98
2017-11-03T12:37:37.940Z,19.73
2017-11-03T12:38:42.998Z,20.80
2017-11-03T12:39:48.083Z,18.87
2017-11-03T12:40:55.809Z,20.08
2017-11-03T12:42:00.880Z,19.65
2017-11-03T12:43:06.739Z,18.92
2017-11-03T12:44:11.819Z,21.45
2017-11-03T12:45:17.226Z,19.55
2017-11-03T12:46:22.663Z,19.50
2017-11-03T12:47:28.100Z,19.85
2017-11-03T12:48:33.545Z,19.83
2017-11-03T12:49:38.609Z,18.80
2017-11-03T12:50:43.747Z,18.50
2017-11-03T12:51:49.004Z,19.35
2017-11-03T12:52:54.113Z,20.27
2017-11-03T12:54:00.220Z,20.27
2017-11-03T12:55:06.402Z,19.20
2017-11-03T12:56:11.812Z,19.77
2017-11-03T12:57:17.991Z,20.50
2017-11-03T12:58:23.478Z,21.37
2017-11-03T12:59:28.583Z,19.00
2017-11-03T13:00:33.653Z,18.80
2017-11-03T13:01:40.034Z,19.02
2017-11-03T13:02:45.137Z,18.90
2017-11-03T13:03:51.001Z,18.98
2017-11-03T13:04:56.094Z,18.58
2017-11-03T13:06:02.281Z,19.17
2017-11-03T13:07:07.348Z,17.62
2017-11-03T13:08:12.426Z,18.73
2017-11-03T13:09:17.489Z,18.77
2017-11-03T13:10:22.924Z,17.98
2017-11-03T13:11:28.016Z,20.00
2017-11-03T13:12:33.469Z,18.75
2017-11-03T13:13:38.540Z,17.50
2017-11-03T13:14:45.071Z,19.65
2017-11-03T13:15:50.205Z,17.92
2017-11-03T13:16:56.388Z,18.40
2017-11-03T13:18:02.927Z,17.45
2017-11-03T13:19:07.993Z,18.23
2017-11-03T13:20:13.066Z,18.35
2017-11-03T13:21:18.164Z,17.98
2017-11-03T13:22:24.480Z,17.50
2017-11-03T13:23:30.677Z,17.92
2017-11-03T13:24:35.749Z,19.12
2017-11-03T13:25:41.944Z,19.58
2017-11-03T13:26:46.899Z,19.20
2017-11-03T13:27:52.145Z,18.40
2017-11-03T13:28:57.931Z,17.83
2017-11-03T13:30:03.197Z,19.08
2017-11-03T13:31:08.616Z,17.75
2017-11-03T13:32:14.061Z,18.42
2017-11-03T13:33:19.148Z,19.08
2017-11-03T13:34:24.577Z,19.62
2017-11-03T13:35:29.986Z,19.67
2017-11-03T13:36:35.825Z,19.73
2017-11-03T13:37:42.414Z,17.02
2017-11-03T13:38:47.515Z,17.10
2017-11-03T13:39:52.577Z,19.45
2017-11-03T13:40:58.026Z,20.02
2017-11-03T13:42:03.841Z,18.08
2017-11-03T13:43:09.317Z,19.27
2017-11-03T13:44:14.744Z,17.02
2017-11-03T13:45:19.817Z,16.70
2017-11-03T13:46:26.365Z,18.98
2017-11-03T13:47:32.209Z,17.75
2017-11-03T13:48:37.709Z,17.55
2017-11-03T13:49:42.780Z,16.35
2017-11-03T13:50:48.773Z,17.75
2017-11-03T13:51:53.644Z,17.27
2017-11-03T13:53:00.187Z,17.27
2017-11-03T13:54:05.633Z,16.55
2017-11-03T13:55:11.059Z,18.35
2017-11-03T13:56:16.495Z,17.45
2017-11-03T13:57:21.935Z,18.67
2017-11-03T13:58:27.349Z,19.77
2017-11-03T13:59:32.551Z,18.00
2017-11-03T14:00:38.209Z,18.70
2017-11-03T14:01:43.972Z,17.45
2017-11-03T14:02:49.404Z,17.10
2017-11-03T14:03:55.969Z,16.90
2017-11-03T14:05:01.061Z,16.83
2017-11-03T14:06:06.496Z,16.83
2017-11-03T14:07:11.913Z,16.12
2017-11-03T14:08:16.985Z,18.08